Aérodrome :
LOGIN :

S'inscrire | Disclaimer

   EN    FR    IT 

 










Légende :    VFR   VFR Marginal   IFR   IFR Intensif   IFR Très Intensif
Visi : 
Plafond : 
>= 8 km
>= 3000ft
5 à 8 km
1000 à 3000 ft
1500m à 5 km
500 à 1000 ft
800 à 1500m
200 à 500 ft
< 800m
< 200 ft
Symboles :   Orages  Brouillard  Fortes neiges  Fortes précipitations  Vent > 20 kt
SIGMETs :   Divers  Orages  Givrage  Turbulence  Onde Orograph.  Cendres Volcan.






- Altitude de l'aérodrome : 284 ft


EGUW - RAF Wattisham

DERNIER METAR :
  • 230150Z AUTO 22004KT 9999 OVC044/// 16/15 Q1014

METARs EXPIRÉS :
  • 230120Z AUTO 23005KT 9999 BKN044/// SCT091/// 16/15 Q1014
  • 230050Z AUTO 23005KT 9999 BKN052/// 16/14 Q1014
  • 230020Z AUTO 24006KT 9999 OVC041/// 17/15 Q1014
  • 222350Z AUTO 23006KT 9999 BKN052/// 16/15 Q1014
  • 222320Z AUTO 22006KT 9999 FEW060/// 16/15 Q1014
  • 222250Z AUTO 22006KT 9999 FEW070/// 16/15 Q1014
  • 222220Z AUTO 22007KT 9999 FEW021/// 17/15 Q1014
  • 222150Z AUTO 22007KT 9999 OVC021/// 18/15 Q1014

Prévision TAF périmée.



MET'MAP, la Météo Aéronautique d'un coup d'oeil ! - Copyright ORBIFLY Décembre 2007 - Disclaimer

ORBIFLY MET'MAP TEAM :

Programmation & Développement : Alexandra Zaïnal
Sur une idée originale de : Baudouin d'Aumeries
Soutien technique & logistique : Manuel Goepfert
Assistance : Marc-Olivier Méhu




SOURCES & CREDITS :

   NOAA